createdAt,value
2022-10-09T00:01:18.833Z,91.75
2022-10-09T00:03:48.546Z,91.98
2022-10-09T00:06:18.998Z,92.17
2022-10-09T00:08:47.732Z,92.00
2022-10-09T00:11:18.387Z,92.16
2022-10-09T00:13:46.848Z,92.15
2022-10-09T00:16:17.739Z,92.44
2022-10-09T00:18:46.490Z,92.29
2022-10-09T00:21:23.200Z,92.25
2022-10-09T00:23:52.459Z,92.48
2022-10-09T00:26:20.832Z,92.29
2022-10-09T00:28:49.671Z,92.40
2022-10-09T00:31:19.548Z,92.34
2022-10-09T00:33:47.977Z,92.36
2022-10-09T00:36:17.841Z,92.14
2022-10-09T00:38:45.915Z,92.30
2022-10-09T00:41:16.492Z,92.32
2022-10-09T00:43:48.321Z,92.19
2022-10-09T00:46:28.175Z,92.29
2022-10-09T00:49:11.535Z,92.13
2022-10-09T00:51:40.168Z,92.20
2022-10-09T00:54:12.959Z,92.24
2022-10-09T00:56:41.032Z,92.36
2022-10-09T00:59:10.136Z,92.38
2022-10-09T01:01:40.358Z,92.37
2022-10-09T01:04:09.211Z,92.46
2022-10-09T01:06:52.678Z,92.48
2022-10-09T01:09:26.290Z,92.42
2022-10-09T01:11:59.552Z,92.76
2022-10-09T01:14:30.600Z,92.75
2022-10-09T01:17:08.938Z,92.96
2022-10-09T01:19:57.799Z,93.17
2022-10-09T01:22:42.061Z,93.30
2022-10-09T01:25:16.472Z,93.57
2022-10-09T01:27:45.827Z,93.40
2022-10-09T01:30:14.390Z,93.56
2022-10-09T01:32:45.489Z,93.57
2022-10-09T01:35:16.093Z,93.28
2022-10-09T01:37:46.882Z,93.40
2022-10-09T01:40:18.301Z,93.49
2022-10-09T01:42:48.041Z,93.25
2022-10-09T01:45:17.110Z,93.28
2022-10-09T01:47:45.335Z,93.43
2022-10-09T01:50:26.896Z,93.30
2022-10-09T01:53:01.464Z,93.38
2022-10-09T01:55:39.632Z,93.45
2022-10-09T01:58:16.687Z,93.64
2022-10-09T02:00:49.256Z,93.52
2022-10-09T02:03:18.460Z,93.53
2022-10-09T02:05:49.711Z,93.63
2022-10-09T02:08:21.579Z,93.55
2022-10-09T02:10:53.979Z,93.69
2022-10-09T02:13:24.245Z,93.78
2022-10-09T02:15:57.885Z,93.51
2022-10-09T02:18:34.974Z,93.95
2022-10-09T02:21:09.804Z,93.96
2022-10-09T02:23:41.447Z,94.13
2022-10-09T02:26:10.397Z,93.84
2022-10-09T02:28:45.088Z,93.92
2022-10-09T02:31:21.097Z,93.97
2022-10-09T02:33:56.200Z,93.93
2022-10-09T02:36:24.596Z,93.64
2022-10-09T02:38:53.105Z,93.89
2022-10-09T02:41:21.570Z,93.80
2022-10-09T02:43:51.700Z,93.81
2022-10-09T02:46:19.989Z,93.92
2022-10-09T02:48:48.154Z,93.65
2022-10-09T02:51:16.777Z,93.72
2022-10-09T02:53:45.065Z,93.83
2022-10-09T02:56:13.464Z,94.00
2022-10-09T02:58:41.613Z,93.90
2022-10-09T03:01:11.263Z,94.08
2022-10-09T03:03:39.378Z,93.91
2022-10-09T03:06:10.540Z,93.89
2022-10-09T03:08:40.141Z,93.89
2022-10-09T03:11:08.477Z,93.84
2022-10-09T03:13:36.597Z,94.13
2022-10-09T03:16:05.190Z,93.93
2022-10-09T03:18:35.232Z,93.95
2022-10-09T03:21:06.731Z,94.10
2022-10-09T03:23:34.981Z,94.11
2022-10-09T03:26:05.387Z,94.06
2022-10-09T03:28:36.098Z,94.24
2022-10-09T03:31:05.063Z,94.24
2022-10-09T03:33:35.438Z,94.17
2022-10-09T03:36:05.221Z,94.14
2022-10-09T03:38:33.626Z,94.11
2022-10-09T03:41:02.366Z,94.07
2022-10-09T03:43:30.348Z,94.18
2022-10-09T03:46:01.104Z,94.15
2022-10-09T03:48:29.406Z,94.24
2022-10-09T03:50:58.852Z,94.13
2022-10-09T03:53:27.715Z,94.08
2022-10-09T03:55:55.820Z,94.34
2022-10-09T03:58:24.941Z,94.30
2022-10-09T04:00:55.290Z,94.31
2022-10-09T04:03:23.780Z,94.27
2022-10-09T04:05:51.774Z,94.36
2022-10-09T04:08:21.670Z,94.63
2022-10-09T04:10:49.938Z,94.44
2022-10-09T04:13:18.195Z,94.60
2022-10-09T04:15:51.954Z,94.50
2022-10-09T04:18:20.153Z,94.43
2022-10-09T04:20:51.371Z,94.51
2022-10-09T04:23:21.676Z,94.36
2022-10-09T04:25:53.991Z,94.51
2022-10-09T04:28:23.429Z,94.68
2022-10-09T04:30:53.172Z,94.54
2022-10-09T04:33:23.219Z,94.62
2022-10-09T04:35:53.451Z,94.61
2022-10-09T04:38:24.457Z,94.47
2022-10-09T04:40:59.112Z,94.45
2022-10-09T04:43:27.487Z,94.61
2022-10-09T04:45:55.781Z,94.40
2022-10-09T04:48:24.192Z,94.41
2022-10-09T04:50:52.975Z,94.56
2022-10-09T04:53:22.409Z,94.63
2022-10-09T04:55:50.553Z,94.47
2022-10-09T04:58:18.530Z,94.67
2022-10-09T05:00:47.586Z,94.62
2022-10-09T05:03:15.646Z,94.60
2022-10-09T05:05:43.789Z,94.66
2022-10-09T05:08:11.873Z,94.70
2022-10-09T05:10:41.335Z,94.64
2022-10-09T05:13:09.363Z,94.89
2022-10-09T05:15:38.083Z,94.90
2022-10-09T05:18:06.734Z,94.85
2022-10-09T05:20:35.085Z,94.91
2022-10-09T05:23:03.189Z,94.69
2022-10-09T05:25:31.225Z,94.76
2022-10-09T05:28:00.889Z,94.69
2022-10-09T05:30:29.120Z,94.59
2022-10-09T05:32:57.144Z,94.67
2022-10-09T05:35:25.280Z,94.60
2022-10-09T05:37:53.253Z,94.65
2022-10-09T05:40:23.634Z,94.82
2022-10-09T05:42:55.238Z,94.83
2022-10-09T05:45:25.025Z,94.74
2022-10-09T05:47:53.031Z,94.43
2022-10-09T05:50:21.834Z,94.36
2022-10-09T05:52:50.108Z,94.57
2022-10-09T05:55:18.307Z,94.41
2022-10-09T05:57:46.341Z,94.70
2022-10-09T06:00:15.293Z,94.54
2022-10-09T06:02:44.895Z,94.51
2022-10-09T06:05:13.278Z,94.49
2022-10-09T06:07:42.792Z,94.62
2022-10-09T06:10:11.350Z,94.33
2022-10-09T06:12:39.790Z,94.35
2022-10-09T06:15:08.908Z,94.38
2022-10-09T06:17:36.913Z,94.20
2022-10-09T06:20:07.927Z,94.19
2022-10-09T06:22:35.962Z,94.19
2022-10-09T06:25:03.973Z,93.89
2022-10-09T06:27:32.062Z,93.83
2022-10-09T06:30:01.633Z,93.79
2022-10-09T06:32:29.732Z,93.74
2022-10-09T06:34:57.772Z,93.73
2022-10-09T06:37:27.487Z,93.49
2022-10-09T06:39:55.574Z,93.66
2022-10-09T06:42:23.729Z,93.37
2022-10-09T06:44:57.791Z,93.22
2022-10-09T06:47:25.766Z,93.18
2022-10-09T06:49:53.742Z,93.22
2022-10-09T06:52:21.698Z,92.85
2022-10-09T06:54:50.984Z,92.75
2022-10-09T06:57:19.055Z,92.82
2022-10-09T06:59:50.101Z,92.73
2022-10-09T07:02:18.301Z,92.90
2022-10-09T07:04:48.256Z,92.86
2022-10-09T07:07:16.543Z,92.53
2022-10-09T07:09:44.803Z,92.45
2022-10-09T07:12:14.247Z,92.21
2022-10-09T07:14:42.217Z,91.92
2022-10-09T07:17:10.694Z,91.87
2022-10-09T07:19:39.042Z,91.90
2022-10-09T07:22:11.337Z,91.52
2022-10-09T07:24:39.405Z,91.27
2022-10-09T07:27:07.358Z,91.13
2022-10-09T07:29:36.759Z,91.22
2022-10-09T07:32:09.572Z,91.05
2022-10-09T07:34:38.444Z,91.00
2022-10-09T07:37:06.645Z,90.51
2022-10-09T07:39:35.495Z,90.13
2022-10-09T07:42:03.782Z,90.14
2022-10-09T07:44:31.762Z,90.11
2022-10-09T07:47:01.180Z,90.16
2022-10-09T07:49:29.229Z,89.26
2022-10-09T07:51:57.255Z,88.77
2022-10-09T07:54:25.374Z,88.17
2022-10-09T07:56:53.463Z,88.08
2022-10-09T07:59:22.750Z,87.20
2022-10-09T08:01:51.153Z,87.27
2022-10-09T08:04:20.573Z,86.89
2022-10-09T08:06:49.698Z,86.15
2022-10-09T08:09:19.559Z,86.06
2022-10-09T08:11:47.586Z,85.59
2022-10-09T08:14:19.175Z,85.27
2022-10-09T08:16:47.902Z,85.68
2022-10-09T08:19:15.954Z,84.18
2022-10-09T08:21:45.516Z,84.01
2022-10-09T08:24:13.652Z,83.51
2022-10-09T08:26:42.515Z,83.96
2022-10-09T08:29:13.870Z,84.18
2022-10-09T08:31:42.152Z,83.31
2022-10-09T08:34:10.585Z,83.25
2022-10-09T08:36:38.650Z,82.07
2022-10-09T08:39:08.017Z,81.66
2022-10-09T08:41:43.126Z,81.91
2022-10-09T08:44:19.198Z,82.38
2022-10-09T08:46:56.469Z,81.20
2022-10-09T08:49:30.517Z,80.88
2022-10-09T08:52:01.423Z,80.58
2022-10-09T08:54:36.706Z,80.01
2022-10-09T08:57:12.171Z,79.36
2022-10-09T08:59:40.411Z,78.47
2022-10-09T09:02:24.501Z,79.18
2022-10-09T09:05:03.493Z,79.29
2022-10-09T09:07:43.677Z,78.65
2022-10-09T09:10:20.573Z,77.52
2022-10-09T09:12:53.186Z,76.66
2022-10-09T09:15:33.870Z,76.22
2022-10-09T09:18:17.615Z,77.50
2022-10-09T09:20:53.416Z,77.89
2022-10-09T09:23:37.976Z,76.98
2022-10-09T09:26:13.372Z,76.45
2022-10-09T09:28:43.365Z,75.85
2022-10-09T09:31:18.579Z,76.16
2022-10-09T09:33:53.700Z,75.07
2022-10-09T09:36:25.447Z,75.72
2022-10-09T09:39:40.842Z,75.69
2022-10-09T09:41:45.200Z,74.48
2022-10-09T09:44:14.970Z,75.52
2022-10-09T09:46:44.987Z,74.25
2022-10-09T09:49:17.678Z,73.33
2022-10-09T09:51:46.692Z,73.74
2022-10-09T09:54:19.028Z,73.59
2022-10-09T09:59:40.191Z,73.69
2022-10-09T10:02:14.754Z,72.90
2022-10-09T10:04:51.343Z,72.81
2022-10-09T10:07:34.128Z,72.58
2022-10-09T10:10:15.442Z,73.07
2022-10-09T10:12:46.930Z,71.81
2022-10-09T10:15:21.868Z,71.91
2022-10-09T10:17:55.791Z,72.39
2022-10-09T10:20:25.308Z,72.99
2022-10-09T10:22:55.249Z,73.04
2022-10-09T10:25:28.160Z,72.73
2022-10-09T10:28:01.094Z,73.08
2022-10-09T10:30:29.852Z,71.18
2022-10-09T10:33:03.491Z,70.27
2022-10-09T10:35:35.984Z,71.42
2022-10-09T10:38:08.871Z,70.10
2022-10-09T10:40:39.861Z,70.26
2022-10-09T10:43:21.644Z,69.93
2022-10-09T10:46:00.019Z,68.54
2022-10-09T10:48:32.024Z,68.03
2022-10-09T10:51:10.718Z,68.65
2022-10-09T10:53:52.608Z,69.41
2022-10-09T10:56:28.813Z,69.49
2022-10-09T10:59:05.889Z,68.20
2022-10-09T11:01:42.964Z,68.71
2022-10-09T11:04:37.218Z,69.33
2022-10-09T11:07:18.108Z,68.70
2022-10-09T11:09:58.315Z,69.27
2022-10-09T11:12:47.379Z,68.56
2022-10-09T11:15:27.876Z,69.43
2022-10-09T11:18:03.789Z,69.25
2022-10-09T11:20:55.394Z,68.02
2022-10-09T11:23:37.956Z,68.14
2022-10-09T11:26:16.330Z,68.40
2022-10-09T11:28:52.644Z,68.65
2022-10-09T11:31:28.520Z,68.36
2022-10-09T11:34:01.706Z,68.32
2022-10-09T11:36:36.030Z,67.97
2022-10-09T11:39:07.137Z,68.47
2022-10-09T11:41:37.084Z,68.77
2022-10-09T11:44:19.595Z,68.98
2022-10-09T11:46:52.507Z,69.53
2022-10-09T11:49:26.073Z,68.15
2022-10-09T11:52:02.365Z,69.59
2022-10-09T11:54:31.007Z,70.40
2022-10-09T11:57:01.188Z,70.20
2022-10-09T11:59:31.407Z,70.15
2022-10-09T12:02:13.732Z,69.71
2022-10-09T12:04:54.490Z,68.86
2022-10-09T12:07:33.356Z,68.60
2022-10-09T12:10:06.159Z,69.31
2022-10-09T12:12:35.060Z,68.66
2022-10-09T12:15:24.499Z,68.36
2022-10-09T12:17:53.934Z,67.12
2022-10-09T12:20:25.817Z,67.25
2022-10-09T12:23:24.646Z,67.18
2022-10-09T12:25:46.744Z,65.43
2022-10-09T12:28:27.982Z,66.53
2022-10-09T12:30:59.477Z,66.49
2022-10-09T12:33:35.002Z,67.33
2022-10-09T12:36:07.969Z,68.37
2022-10-09T12:38:36.187Z,67.95
2022-10-09T12:41:08.291Z,66.53
2022-10-09T12:43:36.963Z,67.13
2022-10-09T12:46:05.158Z,67.93
2022-10-09T12:48:40.510Z,66.64
2022-10-09T12:51:17.300Z,67.36
2022-10-09T12:53:50.763Z,67.82
2022-10-09T12:56:24.110Z,67.70
2022-10-09T12:58:53.503Z,67.73
2022-10-09T13:01:22.517Z,66.82
2022-10-09T13:03:58.181Z,67.83
2022-10-09T13:06:30.373Z,67.48
2022-10-09T13:09:01.314Z,67.26
2022-10-09T13:11:33.796Z,67.13
2022-10-09T13:14:02.170Z,67.48
2022-10-09T13:16:43.119Z,67.62
2022-10-09T13:19:24.048Z,67.92
2022-10-09T13:22:19.703Z,67.48
2022-10-09T13:24:48.286Z,68.48
2022-10-09T13:27:16.432Z,67.99
2022-10-09T13:29:44.772Z,68.38
2022-10-09T13:32:14.075Z,67.71
2022-10-09T13:34:44.087Z,67.50
2022-10-09T13:37:14.106Z,66.97
2022-10-09T13:39:42.245Z,66.45
2022-10-09T13:42:13.937Z,65.93
2022-10-09T13:44:42.202Z,65.76
2022-10-09T13:47:10.395Z,65.29
2022-10-09T13:49:38.493Z,63.57
2022-10-09T13:52:07.960Z,63.25
2022-10-09T13:54:36.438Z,63.29
2022-10-09T13:57:04.843Z,63.95
2022-10-09T13:59:33.139Z,65.03
2022-10-09T14:02:01.668Z,62.95
2022-10-09T14:07:43.077Z,66.36
2022-10-09T14:10:11.973Z,66.50
2022-10-09T14:12:40.103Z,66.97
2022-10-09T14:15:08.835Z,67.68
2022-10-09T14:17:36.930Z,67.22
2022-10-09T14:20:06.560Z,66.28
2022-10-09T14:22:34.614Z,67.25
2022-10-09T14:25:05.200Z,67.46
2022-10-09T14:30:07.122Z,68.03
2022-10-09T14:32:35.203Z,67.51
2022-10-09T14:35:04.366Z,68.57
2022-10-09T14:37:47.663Z,68.89
2022-10-09T14:40:17.148Z,68.67
2022-10-09T14:42:45.487Z,69.05
2022-10-09T14:45:13.770Z,69.48
2022-10-09T14:47:41.774Z,70.36
2022-10-09T14:50:10.942Z,70.86
2022-10-09T14:52:39.004Z,70.46
2022-10-09T14:55:07.544Z,71.24
2022-10-09T14:57:37.057Z,71.30
2022-10-09T15:00:05.812Z,71.64
2022-10-09T15:02:34.205Z,72.12
2022-10-09T15:05:02.359Z,71.25
2022-10-09T15:07:31.379Z,71.42
2022-10-09T15:09:59.492Z,71.00
2022-10-09T15:12:27.520Z,71.79
2022-10-09T15:14:56.982Z,71.67
2022-10-09T15:17:25.125Z,71.86
2022-10-09T15:19:54.095Z,72.39
2022-10-09T15:22:22.179Z,73.10
2022-10-09T15:24:50.640Z,73.20
2022-10-09T15:27:18.723Z,72.28
2022-10-09T15:29:46.731Z,73.35
2022-10-09T15:32:16.308Z,72.86
2022-10-09T15:34:44.396Z,73.71
2022-10-09T15:37:12.401Z,73.71
2022-10-09T15:39:40.527Z,73.89
2022-10-09T15:42:09.055Z,74.29
2022-10-09T15:44:37.490Z,74.69
2022-10-09T15:47:05.686Z,74.83
2022-10-09T15:49:35.295Z,75.75
2022-10-09T15:52:03.365Z,75.84
2022-10-09T15:54:31.431Z,75.64
2022-10-09T15:56:59.536Z,76.16
2022-10-09T15:59:30.046Z,75.74
2022-10-09T16:01:58.197Z,75.62
2022-10-09T16:04:26.999Z,75.83
2022-10-09T16:06:58.126Z,76.46
2022-10-09T16:09:26.125Z,76.08
2022-10-09T16:11:54.245Z,76.48
2022-10-09T16:14:22.309Z,76.51
2022-10-09T16:16:51.597Z,76.55
2022-10-09T16:19:19.651Z,77.38
2022-10-09T16:21:47.613Z,78.00
2022-10-09T16:24:17.068Z,77.57
2022-10-09T16:26:45.262Z,78.14
2022-10-09T16:29:13.355Z,78.43
2022-10-09T16:31:41.306Z,78.27
2022-10-09T16:34:09.319Z,78.32
2022-10-09T16:36:37.340Z,78.22
2022-10-09T16:39:05.407Z,78.22
2022-10-09T16:41:39.565Z,78.87
2022-10-09T16:44:13.857Z,78.35
2022-10-09T16:46:42.929Z,78.32
2022-10-09T16:49:19.908Z,78.66
2022-10-09T16:51:50.844Z,79.39
2022-10-09T16:54:18.814Z,79.61
2022-10-09T16:56:48.164Z,79.80
2022-10-09T16:59:16.442Z,79.80
2022-10-09T17:01:46.056Z,80.01
2022-10-09T17:04:14.930Z,80.38
2022-10-09T17:06:43.904Z,80.57
2022-10-09T17:09:13.939Z,80.63
2022-10-09T17:11:42.379Z,80.66
2022-10-09T17:14:11.786Z,80.82
2022-10-09T17:16:42.231Z,80.95
2022-10-09T17:19:10.410Z,81.46
2022-10-09T17:21:38.525Z,81.12
2022-10-09T17:24:07.660Z,81.38
2022-10-09T17:26:36.969Z,81.69
2022-10-09T17:29:05.357Z,81.03
2022-10-09T17:31:35.303Z,81.63
2022-10-09T17:34:05.582Z,81.51
2022-10-09T17:36:36.119Z,81.58
2022-10-09T17:39:05.742Z,81.82
2022-10-09T17:41:33.957Z,81.76
2022-10-09T17:44:02.018Z,81.28
2022-10-09T17:46:30.591Z,81.18
2022-10-09T17:49:01.204Z,81.42
2022-10-09T17:51:31.524Z,81.50
2022-10-09T17:54:03.272Z,81.50
2022-10-09T17:56:33.848Z,81.33
2022-10-09T17:59:03.022Z,81.37
2022-10-09T18:01:31.484Z,81.13
2022-10-09T18:04:01.451Z,80.82
2022-10-09T18:06:33.068Z,81.07
2022-10-09T18:09:01.476Z,81.48
2022-10-09T18:11:30.084Z,81.39
2022-10-09T18:13:58.498Z,81.07
2022-10-09T18:16:35.742Z,81.28
2022-10-09T18:19:09.670Z,81.99
2022-10-09T18:21:39.917Z,81.95
2022-10-09T18:24:08.043Z,82.52
2022-10-09T18:26:36.112Z,82.33
2022-10-09T18:29:05.076Z,82.53
2022-10-09T18:31:35.403Z,82.37
2022-10-09T18:34:03.637Z,82.53
2022-10-09T18:36:34.810Z,82.75
2022-10-09T18:39:05.707Z,82.56
2022-10-09T18:41:34.848Z,82.19
2022-10-09T18:44:03.877Z,82.22
2022-10-09T18:46:36.892Z,82.87
2022-10-09T18:49:09.332Z,82.71
2022-10-09T18:51:40.812Z,83.36
2022-10-09T18:54:17.114Z,82.98
2022-10-09T18:56:47.390Z,83.44
2022-10-09T18:59:19.661Z,83.56
2022-10-09T19:01:48.046Z,83.62
2022-10-09T19:04:16.655Z,83.80
2022-10-09T19:06:46.202Z,83.81
2022-10-09T19:09:15.287Z,84.04
2022-10-09T19:11:43.283Z,83.86
2022-10-09T19:14:11.614Z,84.31
2022-10-09T19:16:39.803Z,84.08
2022-10-09T19:19:07.808Z,83.81
2022-10-09T19:21:36.398Z,83.92
2022-10-09T19:24:07.140Z,83.96
2022-10-09T19:26:35.401Z,83.72
2022-10-09T19:29:04.927Z,83.88
2022-10-09T19:31:34.037Z,83.97
2022-10-09T19:34:03.201Z,83.89
2022-10-09T19:36:33.279Z,83.78
2022-10-09T19:39:01.404Z,83.49
2022-10-09T19:41:31.020Z,83.77
2022-10-09T19:43:59.822Z,83.63
2022-10-09T19:46:28.891Z,83.52
2022-10-09T19:48:57.386Z,83.42
2022-10-09T19:51:27.232Z,83.77
2022-10-09T19:53:55.602Z,83.52
2022-10-09T19:56:26.182Z,83.32
2022-10-09T19:58:56.498Z,83.33
2022-10-09T20:01:26.500Z,83.04
2022-10-09T20:03:56.272Z,83.67
2022-10-09T20:06:24.268Z,83.37
2022-10-09T20:08:52.643Z,83.19
2022-10-09T20:11:21.024Z,83.41
2022-10-09T20:13:55.565Z,82.89
2022-10-09T20:16:27.858Z,83.14
2022-10-09T20:18:56.184Z,83.22
2022-10-09T20:21:24.180Z,83.21
2022-10-09T20:23:52.269Z,83.26
2022-10-09T20:26:21.944Z,83.98
2022-10-09T20:28:53.794Z,84.00
2022-10-09T20:31:24.547Z,83.90
2022-10-09T20:33:55.529Z,83.77
2022-10-09T20:36:26.530Z,84.17
2022-10-09T20:38:56.087Z,83.59
2022-10-09T20:41:25.803Z,83.93
2022-10-09T20:43:54.597Z,83.85
2022-10-09T20:46:24.054Z,84.33
2022-10-09T20:48:53.861Z,84.21
2022-10-09T20:51:22.817Z,84.27
2022-10-09T20:53:55.717Z,83.96
2022-10-09T20:56:26.024Z,83.72
2022-10-09T20:58:54.990Z,83.77
2022-10-09T21:01:23.340Z,84.14
2022-10-09T21:03:53.301Z,83.93
2022-10-09T21:06:22.659Z,84.24
2022-10-09T21:08:50.980Z,84.29
2022-10-09T21:11:20.033Z,84.33
2022-10-09T21:13:48.799Z,84.21
2022-10-09T21:16:18.779Z,84.29
2022-10-09T21:18:47.213Z,84.59
2022-10-09T21:21:19.429Z,84.24
2022-10-09T21:23:50.688Z,84.29
2022-10-09T21:26:20.470Z,84.78
2022-10-09T21:28:48.636Z,84.78
2022-10-09T21:31:18.215Z,84.75
2022-10-09T21:33:47.034Z,84.60
2022-10-09T21:36:36.471Z,84.81
2022-10-09T21:39:06.804Z,84.61
2022-10-09T21:41:35.589Z,84.67
2022-10-09T21:44:04.363Z,84.58
2022-10-09T21:46:32.591Z,84.88
2022-10-09T21:49:05.397Z,84.96
2022-10-09T21:51:36.638Z,84.50
2022-10-09T21:54:04.650Z,84.80
2022-10-09T21:56:32.895Z,85.24
2022-10-09T21:59:00.974Z,85.95
2022-10-09T22:01:29.439Z,84.81
2022-10-09T22:03:57.473Z,84.72
2022-10-09T22:06:25.491Z,84.58
2022-10-09T22:08:54.929Z,85.04
2022-10-09T22:11:23.014Z,86.45
2022-10-09T22:13:52.110Z,85.89
2022-10-09T22:16:20.144Z,86.09
2022-10-09T22:18:48.151Z,87.00
2022-10-09T22:21:16.783Z,87.51
2022-10-09T22:23:44.822Z,86.49
2022-10-09T22:26:17.016Z,86.11
2022-10-09T22:28:45.754Z,86.49
2022-10-09T22:31:15.472Z,85.51
2022-10-09T22:33:44.221Z,86.81
2022-10-09T22:36:14.944Z,88.03
2022-10-09T22:38:44.375Z,86.67
2022-10-09T22:41:15.707Z,86.42
2022-10-09T22:43:46.267Z,87.22
2022-10-09T22:46:17.234Z,87.37
2022-10-09T22:48:46.062Z,87.47
2022-10-09T22:51:16.688Z,89.18
2022-10-09T22:53:45.412Z,89.20
2022-10-09T22:56:17.545Z,88.92
2022-10-09T22:58:45.860Z,88.73
2022-10-09T23:01:17.743Z,88.96
2022-10-09T23:03:46.129Z,88.66
2022-10-09T23:06:16.347Z,87.09
2022-10-09T23:08:46.398Z,86.97
2022-10-09T23:11:17.268Z,87.64
2022-10-09T23:13:45.558Z,88.29
2022-10-09T23:16:15.281Z,88.75
2022-10-09T23:18:44.171Z,88.54
2022-10-09T23:21:14.770Z,89.63
2022-10-09T23:23:43.541Z,89.05
2022-10-09T23:26:14.216Z,87.48
2022-10-09T23:28:44.385Z,87.67
2022-10-09T23:31:14.845Z,88.94
2022-10-09T23:33:45.118Z,88.36
2022-10-09T23:36:14.831Z,87.66
2022-10-09T23:38:42.913Z,88.26
2022-10-09T23:41:13.990Z,88.03
2022-10-09T23:43:44.319Z,88.42
2022-10-09T23:46:15.260Z,89.08
2022-10-09T23:48:44.445Z,89.08
2022-10-09T23:51:14.086Z,88.68
2022-10-09T23:53:42.993Z,87.00
2022-10-09T23:56:17.012Z,87.24
2022-10-09T23:58:47.059Z,87.54
